createdAt,value
2022-08-10T00:01:06.787Z,18.55
2022-08-10T00:03:39.252Z,18.56
2022-08-10T00:06:09.220Z,18.56
2022-08-10T00:08:38.994Z,18.57
2022-08-10T00:11:16.775Z,18.55
2022-08-10T00:13:46.935Z,18.53
2022-08-10T00:16:16.810Z,18.52
2022-08-10T00:18:49.229Z,18.49
2022-08-10T00:21:19.265Z,18.48
2022-08-10T00:23:49.053Z,18.46
2022-08-10T00:26:18.796Z,18.44
2022-08-10T00:28:48.534Z,18.43
2022-08-10T00:31:18.369Z,18.43
2022-08-10T00:33:50.758Z,18.43
2022-08-10T00:36:20.515Z,18.42
2022-08-10T00:38:50.238Z,18.43
2022-08-10T00:41:20.033Z,18.42
2022-08-10T00:43:49.821Z,18.40
2022-08-10T00:46:19.575Z,18.38
2022-08-10T00:49:00.316Z,18.36
2022-08-10T00:51:48.367Z,18.33
2022-08-10T00:54:24.371Z,18.32
2022-08-10T00:57:17.610Z,18.30
2022-08-10T00:59:59.551Z,18.29
2022-08-10T01:02:32.567Z,18.27
2022-08-10T01:05:09.527Z,18.26
2022-08-10T01:07:59.442Z,18.24
2022-08-10T01:10:36.944Z,18.21
2022-08-10T01:13:13.556Z,18.16
2022-08-10T01:15:55.694Z,18.13
2022-08-10T01:18:37.536Z,18.10
2022-08-10T01:21:53.299Z,18.07
2022-08-10T01:24:55.387Z,18.05
2022-08-10T01:27:31.870Z,18.02
2022-08-10T01:30:07.728Z,18.00
2022-08-10T01:32:53.074Z,17.98
2022-08-10T01:35:30.085Z,17.94
2022-08-10T01:38:11.059Z,17.91
2022-08-10T01:40:47.861Z,17.88
2022-08-10T01:43:20.476Z,17.87
2022-08-10T01:45:58.694Z,17.87
2022-08-10T01:48:32.111Z,17.86
2022-08-10T01:51:10.301Z,17.84
2022-08-10T01:53:47.359Z,17.83
2022-08-10T01:56:19.319Z,17.81
2022-08-10T01:58:52.507Z,17.81
2022-08-10T02:01:28.382Z,17.83
2022-08-10T02:04:05.923Z,17.84
2022-08-10T02:06:41.360Z,17.84
2022-08-10T02:09:12.018Z,17.87
2022-08-10T02:11:55.979Z,17.87
2022-08-10T02:14:37.286Z,17.88
2022-08-10T02:17:59.158Z,17.89
2022-08-10T02:20:08.420Z,17.91
2022-08-10T02:22:40.923Z,17.91
2022-08-10T02:25:41.574Z,17.90
2022-08-10T02:28:04.073Z,17.90
2022-08-10T02:30:35.620Z,17.88
2022-08-10T02:33:09.826Z,17.88
2022-08-10T02:35:55.326Z,17.87
2022-08-10T02:38:58.409Z,17.86
2022-08-10T02:45:14.106Z,17.87
2022-08-10T02:45:29.727Z,17.86
2022-08-10T02:47:25.102Z,17.85
2022-08-10T02:50:05.139Z,17.84
2022-08-10T02:52:41.548Z,17.80
2022-08-10T02:55:19.481Z,17.78
2022-08-10T02:58:17.036Z,17.74
2022-08-10T03:00:52.698Z,17.73
2022-08-10T03:03:25.527Z,17.72
2022-08-10T03:06:02.598Z,17.70
2022-08-10T03:08:36.850Z,17.68
2022-08-10T03:11:09.615Z,17.64
2022-08-10T03:13:40.373Z,17.58
2022-08-10T03:16:12.745Z,17.52
2022-08-10T03:18:43.172Z,17.47
2022-08-10T03:21:17.448Z,17.40
2022-08-10T03:23:48.353Z,17.35
2022-08-10T03:26:20.608Z,17.28
2022-08-10T03:28:51.632Z,17.26
2022-08-10T03:31:21.578Z,17.22
2022-08-10T03:33:51.882Z,17.21
2022-08-10T03:36:44.087Z,17.21
2022-08-10T03:39:14.629Z,17.18
2022-08-10T03:41:53.512Z,17.18
2022-08-10T03:44:28.437Z,17.12
2022-08-10T03:47:02.223Z,17.05
2022-08-10T03:49:33.902Z,16.98
2022-08-10T03:52:06.893Z,16.95
2022-08-10T03:54:37.428Z,16.92
2022-08-10T03:57:07.767Z,16.91
2022-08-10T03:59:38.142Z,16.90
2022-08-10T04:02:46.910Z,16.89
2022-08-10T04:04:58.901Z,16.88
2022-08-10T04:07:31.554Z,16.88
2022-08-10T04:10:01.332Z,16.91
2022-08-10T04:12:32.991Z,16.90
2022-08-10T04:15:02.794Z,16.87
2022-08-10T04:18:03.409Z,16.84
2022-08-10T04:20:34.228Z,16.82
2022-08-10T04:23:11.673Z,16.81
2022-08-10T04:25:43.126Z,16.80
2022-08-10T04:28:14.001Z,16.77
2022-08-10T04:30:46.131Z,16.79
2022-08-10T04:33:20.086Z,16.82
2022-08-10T04:35:50.882Z,16.87
2022-08-10T04:38:25.070Z,16.92
2022-08-10T04:40:55.438Z,16.97
2022-08-10T04:43:25.395Z,17.03
2022-08-10T04:45:55.673Z,17.10
2022-08-10T04:48:43.324Z,17.18
2022-08-10T04:51:19.420Z,17.35
2022-08-10T04:54:05.111Z,17.55
2022-08-10T04:56:38.297Z,17.76
2022-08-10T04:59:09.289Z,17.93
2022-08-10T05:02:22.776Z,18.06
2022-08-10T05:04:36.730Z,18.20
2022-08-10T05:07:15.920Z,18.32
2022-08-10T05:10:01.273Z,18.47
2022-08-10T05:12:36.860Z,18.66
2022-08-10T05:15:12.841Z,18.86
2022-08-10T05:18:09.419Z,19.06
2022-08-10T05:20:33.803Z,19.28
2022-08-10T05:23:03.559Z,19.45
2022-08-10T05:25:38.205Z,19.59
2022-08-10T05:28:09.008Z,19.75
2022-08-10T05:30:38.815Z,19.92
2022-08-10T05:33:09.077Z,20.05
2022-08-10T05:35:51.931Z,20.19
2022-08-10T05:38:29.711Z,20.36
2022-08-10T05:41:03.060Z,20.49
2022-08-10T05:43:32.806Z,20.58
2022-08-10T05:46:19.999Z,20.69
2022-08-10T05:48:59.182Z,20.79
2022-08-10T05:51:30.849Z,20.87
2022-08-10T05:54:06.014Z,20.96
2022-08-10T05:56:56.422Z,21.05
2022-08-10T06:00:31.132Z,21.23
2022-08-10T06:02:32.158Z,21.42
2022-08-10T06:05:09.125Z,21.59
2022-08-10T06:07:43.203Z,21.72
2022-08-10T06:10:19.662Z,21.88
2022-08-10T06:13:26.800Z,22.09
2022-08-10T06:16:04.154Z,22.29
2022-08-10T06:18:34.466Z,22.45
2022-08-10T06:21:05.052Z,22.57
2022-08-10T06:23:35.844Z,22.64
2022-08-10T06:26:11.887Z,22.69
2022-08-10T06:29:02.047Z,22.73
2022-08-10T06:31:47.588Z,22.74
2022-08-10T06:34:23.465Z,22.87
2022-08-10T06:36:55.520Z,22.99
2022-08-10T06:39:35.245Z,23.04
2022-08-10T06:42:16.856Z,23.09
2022-08-10T06:44:57.393Z,23.04
2022-08-10T06:47:34.053Z,23.04
2022-08-10T06:50:13.346Z,23.05
2022-08-10T06:52:45.114Z,23.13
2022-08-10T06:55:18.660Z,23.19
2022-08-10T06:57:59.891Z,23.24
2022-08-10T07:00:34.837Z,23.32
2022-08-10T07:03:09.551Z,23.41
2022-08-10T07:05:46.848Z,23.52
2022-08-10T07:08:20.920Z,23.62
2022-08-10T07:10:51.953Z,23.66
2022-08-10T07:14:15.361Z,23.64
2022-08-10T07:16:17.287Z,23.73
2022-08-10T07:18:50.695Z,23.87
2022-08-10T07:21:22.270Z,23.98
2022-08-10T07:23:58.775Z,24.06
2022-08-10T07:26:31.898Z,24.19
2022-08-10T07:29:03.611Z,24.39
2022-08-10T07:31:57.273Z,24.52
2022-08-10T07:34:30.024Z,24.65
2022-08-10T07:37:05.131Z,24.66
2022-08-10T07:39:58.276Z,24.73
2022-08-10T07:42:31.781Z,24.83
2022-08-10T07:45:01.949Z,24.94
2022-08-10T07:47:53.648Z,25.05
2022-08-10T07:50:27.331Z,25.13
2022-08-10T07:53:06.106Z,25.17
2022-08-10T07:56:01.409Z,25.15
2022-08-10T07:58:31.899Z,25.23
2022-08-10T08:01:03.052Z,25.30
2022-08-10T08:03:37.005Z,25.30
2022-08-10T08:06:12.135Z,25.28
2022-08-10T08:08:45.918Z,25.26
2022-08-10T08:11:26.036Z,25.28
2022-08-10T08:13:57.927Z,25.35
2022-08-10T08:16:28.915Z,25.47
2022-08-10T08:19:26.790Z,25.56
2022-08-10T08:24:04.648Z,25.55
2022-08-10T08:24:46.044Z,25.59
2022-08-10T08:27:19.843Z,25.64
2022-08-10T08:29:51.215Z,25.74
2022-08-10T08:32:25.137Z,25.73
2022-08-10T08:35:02.311Z,25.77
2022-08-10T08:38:29.590Z,25.82
2022-08-10T08:40:29.459Z,25.95
2022-08-10T08:43:21.786Z,26.02
2022-08-10T08:46:21.399Z,26.02
2022-08-10T08:50:07.483Z,26.02
2022-08-10T08:52:36.351Z,25.96
2022-08-10T08:56:04.768Z,25.95
2022-08-10T08:58:26.125Z,26.02
2022-08-10T09:01:04.959Z,26.18
2022-08-10T09:04:19.876Z,26.21
2022-08-10T09:07:59.375Z,26.24
2022-08-10T09:10:30.338Z,26.28
2022-08-10T09:13:09.955Z,26.24
2022-08-10T09:15:47.135Z,26.30
2022-08-10T09:18:23.821Z,26.38
2022-08-10T09:21:01.850Z,26.37
2022-08-10T09:24:04.818Z,26.32
2022-08-10T09:26:38.432Z,26.37
2022-08-10T09:29:12.810Z,26.52
2022-08-10T09:31:55.759Z,26.68
2022-08-10T09:36:19.793Z,26.85
2022-08-10T09:38:02.504Z,27.00
2022-08-10T09:41:00.890Z,27.04
2022-08-10T09:43:44.985Z,26.97
2022-08-10T09:46:33.450Z,26.97
2022-08-10T09:49:11.842Z,26.96
2022-08-10T09:51:57.057Z,27.01
2022-08-10T09:54:49.947Z,27.04
2022-08-10T09:57:44.352Z,27.00
2022-08-10T10:00:19.233Z,27.02
2022-08-10T10:03:00.715Z,27.05
2022-08-10T10:05:51.869Z,27.12
2022-08-10T10:08:30.831Z,27.25
2022-08-10T10:11:12.515Z,27.40
2022-08-10T10:14:03.881Z,27.46
2022-08-10T10:17:01.111Z,27.47
2022-08-10T10:19:53.993Z,27.49
2022-08-10T10:22:41.903Z,27.58
2022-08-10T10:25:21.475Z,27.63
2022-08-10T10:28:05.682Z,27.62
2022-08-10T10:30:47.002Z,27.57
2022-08-10T10:33:28.216Z,27.51
2022-08-10T10:36:00.184Z,27.48
2022-08-10T10:38:37.036Z,27.55
2022-08-10T10:41:16.838Z,27.55
2022-08-10T10:43:58.969Z,27.60
2022-08-10T10:46:42.339Z,27.56
2022-08-10T10:49:25.697Z,27.36
2022-08-10T10:52:05.628Z,27.13
2022-08-10T10:54:44.485Z,27.00
2022-08-10T10:57:58.561Z,26.87
2022-08-10T11:00:16.095Z,26.67
2022-08-10T11:02:56.296Z,26.51
2022-08-10T11:05:36.824Z,26.33
2022-08-10T11:08:14.754Z,26.24
2022-08-10T11:10:52.857Z,26.18
2022-08-10T11:14:27.176Z,26.12
2022-08-10T11:16:27.577Z,26.07
2022-08-10T11:19:02.521Z,25.99
2022-08-10T11:21:48.408Z,25.95
2022-08-10T11:24:42.692Z,25.88
2022-08-10T11:27:24.703Z,25.85
2022-08-10T11:30:02.554Z,25.81
2022-08-10T11:32:44.091Z,25.88
2022-08-10T11:35:23.634Z,25.89
2022-08-10T11:38:28.393Z,25.82
2022-08-10T11:41:05.588Z,25.79
2022-08-10T11:44:03.812Z,25.81
2022-08-10T11:46:36.777Z,25.85
2022-08-10T11:49:11.494Z,25.90
2022-08-10T11:51:47.212Z,25.96
2022-08-10T11:54:28.993Z,26.07
2022-08-10T11:57:02.951Z,26.08
2022-08-10T11:59:47.646Z,26.07
2022-08-10T12:02:19.464Z,26.06
2022-08-10T12:04:58.513Z,26.02
2022-08-10T12:08:54.555Z,25.99
2022-08-10T12:10:24.565Z,26.00
2022-08-10T12:13:05.103Z,26.01
2022-08-10T12:15:40.417Z,26.04
2022-08-10T12:18:16.938Z,26.06
2022-08-10T12:20:51.810Z,26.09
2022-08-10T12:23:28.594Z,26.06
2022-08-10T12:26:08.907Z,26.00
2022-08-10T12:28:49.813Z,25.99
2022-08-10T12:31:24.508Z,25.98
2022-08-10T12:34:16.220Z,25.99
2022-08-10T12:36:51.324Z,26.00
2022-08-10T12:39:28.501Z,26.00
2022-08-10T12:42:07.593Z,26.02
2022-08-10T12:44:45.824Z,26.09
2022-08-10T12:47:24.975Z,26.12
2022-08-10T12:50:29.336Z,26.14
2022-08-10T12:53:04.816Z,26.16
2022-08-10T12:55:40.113Z,26.19
2022-08-10T12:59:00.271Z,26.20
2022-08-10T13:01:17.268Z,26.17
2022-08-10T13:04:20.533Z,26.17
2022-08-10T13:06:46.379Z,26.20
2022-08-10T13:09:17.049Z,26.21
2022-08-10T13:12:36.151Z,26.25
2022-08-10T13:14:49.576Z,26.31
2022-08-10T13:17:38.766Z,26.33
2022-08-10T13:20:17.740Z,26.37
2022-08-10T13:22:50.317Z,26.34
2022-08-10T13:25:26.879Z,26.35
2022-08-10T13:27:59.076Z,26.40
2022-08-10T13:30:37.681Z,26.41
2022-08-10T13:33:08.969Z,26.44
2022-08-10T13:35:40.365Z,26.45
2022-08-10T13:38:13.183Z,26.46
2022-08-10T13:40:43.966Z,26.48
2022-08-10T13:43:15.157Z,26.48
2022-08-10T13:45:50.326Z,26.43
2022-08-10T13:48:23.541Z,26.33
2022-08-10T13:50:54.823Z,26.27
2022-08-10T13:53:26.569Z,26.25
2022-08-10T13:55:58.812Z,26.26
2022-08-10T13:58:33.344Z,26.23
2022-08-10T14:01:12.981Z,26.14
2022-08-10T14:03:45.394Z,26.08
2022-08-10T14:06:18.788Z,26.11
2022-08-10T14:08:51.527Z,26.12
2022-08-10T14:11:23.327Z,26.12
2022-08-10T14:13:56.461Z,26.09
2022-08-10T14:16:30.369Z,26.06
2022-08-10T14:19:04.245Z,26.06
2022-08-10T14:21:34.158Z,25.97
2022-08-10T14:24:04.037Z,25.92
2022-08-10T14:26:34.852Z,25.85
2022-08-10T14:29:09.518Z,25.81
2022-08-10T14:32:01.633Z,25.81
2022-08-10T14:34:59.561Z,25.82
2022-08-10T14:37:37.566Z,25.81
2022-08-10T14:40:13.047Z,25.80
2022-08-10T14:42:50.068Z,25.82
2022-08-10T14:45:24.985Z,25.81
2022-08-10T14:48:05.981Z,25.77
2022-08-10T14:50:38.446Z,25.73
2022-08-10T14:53:28.323Z,25.71
2022-08-10T14:56:02.105Z,25.68
2022-08-10T14:58:35.989Z,25.71
2022-08-10T15:01:10.659Z,25.73
2022-08-10T15:04:02.033Z,25.73
2022-08-10T15:06:41.863Z,25.67
2022-08-10T15:09:19.665Z,25.64
2022-08-10T15:12:13.200Z,25.60
2022-08-10T15:14:45.122Z,25.56
2022-08-10T15:17:18.802Z,25.52
2022-08-10T15:20:02.936Z,25.47
2022-08-10T15:22:38.447Z,25.43
2022-08-10T15:25:25.298Z,25.40
2022-08-10T15:28:05.302Z,25.37
2022-08-10T15:30:42.994Z,25.28
2022-08-10T15:34:03.525Z,25.19
2022-08-10T15:37:01.965Z,25.07
2022-08-10T15:40:25.860Z,24.98
2022-08-10T15:42:58.688Z,24.91
2022-08-10T15:45:28.891Z,24.82
2022-08-10T15:48:04.028Z,24.76
2022-08-10T15:50:40.667Z,24.72
2022-08-10T15:53:18.849Z,24.68
2022-08-10T15:55:54.278Z,24.65
2022-08-10T15:58:39.522Z,24.57
2022-08-10T16:02:14.543Z,24.52
2022-08-10T16:04:09.248Z,24.47
2022-08-10T16:06:44.668Z,24.39
2022-08-10T16:10:23.426Z,24.34
2022-08-10T16:12:18.630Z,24.26
2022-08-10T16:15:04.422Z,24.22
2022-08-10T16:17:55.298Z,24.15
2022-08-10T16:20:31.363Z,24.07
2022-08-10T16:23:05.795Z,24.05
2022-08-10T16:25:47.887Z,24.03
2022-08-10T16:28:24.320Z,24.00
2022-08-10T16:30:56.781Z,23.93
2022-08-10T16:33:53.881Z,23.82
2022-08-10T16:36:21.506Z,23.72
2022-08-10T16:38:53.452Z,23.64
2022-08-10T16:42:03.487Z,23.57
2022-08-10T16:44:25.737Z,23.54
2022-08-10T16:46:56.204Z,23.54
2022-08-10T16:49:27.643Z,23.51
2022-08-10T16:51:59.484Z,23.46
2022-08-10T16:54:31.009Z,23.42
2022-08-10T16:57:06.519Z,23.36
2022-08-10T16:59:40.634Z,23.32
2022-08-10T17:02:16.133Z,23.28
2022-08-10T17:04:47.834Z,23.28
2022-08-10T17:07:26.098Z,23.27
2022-08-10T17:10:07.833Z,23.21
2022-08-10T17:12:43.027Z,23.13
2022-08-10T17:15:13.657Z,23.05
2022-08-10T17:17:49.072Z,23.03
2022-08-10T17:20:30.841Z,23.03
2022-08-10T17:23:07.258Z,23.00
2022-08-10T17:25:48.962Z,22.98
2022-08-10T17:28:34.782Z,22.96
2022-08-10T17:31:24.096Z,22.90
2022-08-10T17:34:06.076Z,22.84
2022-08-10T17:36:39.572Z,22.79
2022-08-10T17:39:15.412Z,22.74
2022-08-10T17:41:50.929Z,22.69
2022-08-10T17:44:25.662Z,22.70
2022-08-10T17:46:56.616Z,22.68
2022-08-10T17:49:28.929Z,22.63
2022-08-10T17:52:02.742Z,22.60
2022-08-10T17:54:35.546Z,22.57
2022-08-10T17:57:11.447Z,22.53
2022-08-10T17:59:45.092Z,22.46
2022-08-10T18:02:17.629Z,22.40
2022-08-10T18:04:53.013Z,22.34
2022-08-10T18:07:25.690Z,22.32
2022-08-10T18:09:57.447Z,22.33
2022-08-10T18:12:37.959Z,22.33
2022-08-10T18:15:15.040Z,22.30
2022-08-10T18:17:51.050Z,22.27
2022-08-10T18:20:28.150Z,22.21
2022-08-10T18:23:00.183Z,22.19
2022-08-10T18:25:33.893Z,22.16
2022-08-10T18:28:06.724Z,22.14
2022-08-10T18:30:48.980Z,22.09
2022-08-10T18:33:21.067Z,22.02
2022-08-10T18:35:52.865Z,21.95
2022-08-10T18:38:24.264Z,21.92
2022-08-10T18:40:58.672Z,21.87
2022-08-10T18:44:06.029Z,21.80
2022-08-10T18:46:40.091Z,21.74
2022-08-10T18:49:15.297Z,21.70
2022-08-10T18:51:49.020Z,21.67
2022-08-10T18:54:24.245Z,21.61
2022-08-10T18:57:22.674Z,21.58
2022-08-10T19:00:09.723Z,21.55
2022-08-10T19:03:13.041Z,21.51
2022-08-10T19:06:02.040Z,21.44
2022-08-10T19:08:51.598Z,21.37
2022-08-10T19:11:40.164Z,21.33
2022-08-10T19:14:15.922Z,21.30
2022-08-10T19:17:05.267Z,21.27
2022-08-10T19:19:48.933Z,21.23
2022-08-10T19:22:27.216Z,21.16
2022-08-10T19:25:05.853Z,21.09
2022-08-10T19:27:50.921Z,21.05
2022-08-10T19:30:28.898Z,21.01
2022-08-10T19:33:12.144Z,20.96
2022-08-10T19:36:03.868Z,20.91
2022-08-10T19:38:49.752Z,20.87
2022-08-10T19:41:32.481Z,20.85
2022-08-10T19:44:21.766Z,20.81
2022-08-10T19:46:56.827Z,20.79
2022-08-10T19:49:39.955Z,20.77
2022-08-10T19:52:27.694Z,20.73
2022-08-10T19:55:03.191Z,20.69
2022-08-10T19:57:39.494Z,20.63
2022-08-10T20:00:18.863Z,20.60
2022-08-10T20:03:13.264Z,20.59
2022-08-10T20:06:18.148Z,20.56
2022-08-10T20:08:56.736Z,20.50
2022-08-10T20:11:45.487Z,20.45
2022-08-10T20:14:23.083Z,20.42
2022-08-10T20:16:56.000Z,20.38
2022-08-10T20:19:53.097Z,20.32
2022-08-10T20:22:28.998Z,20.29
2022-08-10T20:25:14.014Z,20.26
2022-08-10T20:27:59.858Z,20.23
2022-08-10T20:30:35.402Z,20.22
2022-08-10T20:33:12.245Z,20.23
2022-08-10T20:35:55.108Z,20.19
2022-08-10T20:38:27.475Z,20.14
2022-08-10T20:41:11.547Z,20.16
2022-08-10T20:43:49.275Z,20.15
2022-08-10T20:46:25.590Z,20.13
2022-08-10T20:49:01.813Z,20.11
2022-08-10T20:51:58.296Z,20.09
2022-08-10T20:54:35.385Z,20.10
2022-08-10T20:57:56.672Z,20.11
2022-08-10T21:00:44.054Z,20.11
2022-08-10T21:03:34.877Z,20.13
2022-08-10T21:06:43.572Z,20.12
2022-08-10T21:09:27.375Z,20.12
2022-08-10T21:12:18.201Z,20.11
2022-08-10T21:14:57.051Z,20.12
2022-08-10T21:17:51.043Z,20.13
2022-08-10T21:20:54.648Z,20.12
2022-08-10T21:23:30.510Z,20.09
2022-08-10T21:26:19.420Z,20.07
2022-08-10T21:29:21.201Z,20.04
2022-08-10T21:32:03.492Z,20.01
2022-08-10T21:34:54.522Z,19.98
2022-08-10T21:37:46.341Z,19.95
2022-08-10T21:40:32.120Z,19.94
2022-08-10T21:43:44.447Z,19.92
2022-08-10T21:46:36.362Z,19.91
2022-08-10T21:49:27.427Z,19.90
2022-08-10T21:52:27.500Z,19.85
2022-08-10T21:55:19.045Z,19.83
2022-08-10T21:58:05.823Z,19.84
2022-08-10T22:00:51.436Z,19.85
2022-08-10T22:03:39.956Z,19.81
2022-08-10T22:06:25.688Z,19.76
2022-08-10T22:09:16.157Z,19.72
2022-08-10T22:12:04.701Z,19.67
2022-08-10T22:14:49.482Z,19.66
2022-08-10T22:18:00.637Z,19.65
2022-08-10T22:20:43.726Z,19.67
2022-08-10T22:23:47.854Z,19.68
2022-08-10T22:26:56.553Z,19.66
2022-08-10T22:29:51.573Z,19.65
2022-08-10T22:32:45.376Z,19.65
2022-08-10T22:36:01.273Z,19.61
2022-08-10T22:38:59.848Z,19.58
2022-08-10T22:41:53.529Z,19.55
2022-08-10T22:44:39.678Z,19.52
2022-08-10T22:47:26.651Z,19.51
2022-08-10T22:49:53.873Z,19.48
2022-08-10T22:52:34.483Z,19.49
2022-08-10T22:55:49.845Z,19.50
2022-08-10T22:58:44.002Z,19.49
2022-08-10T23:01:38.889Z,19.46
2022-08-10T23:04:16.220Z,19.43
2022-08-10T23:06:53.444Z,19.43
2022-08-10T23:09:26.642Z,19.43
2022-08-10T23:12:00.701Z,19.42
2022-08-10T23:14:37.849Z,19.42
2022-08-10T23:17:26.683Z,19.40
2022-08-10T23:20:21.466Z,19.39
2022-08-10T23:22:54.965Z,19.40
2022-08-10T23:25:29.071Z,19.38
2022-08-10T23:28:09.065Z,19.38
2022-08-10T23:30:51.469Z,19.37
2022-08-10T23:33:38.122Z,19.35
2022-08-10T23:36:34.637Z,19.35
2022-08-10T23:39:24.467Z,19.33
2022-08-10T23:41:57.116Z,19.31
2022-08-10T23:44:28.444Z,19.30
2022-08-10T23:47:03.825Z,19.26
2022-08-10T23:49:38.834Z,19.21
2022-08-10T23:52:18.277Z,19.20
2022-08-10T23:54:51.679Z,19.19
2022-08-10T23:57:24.613Z,19.20
2022-08-10T23:59:58.332Z,19.19
